KPHT/PHT METAR and TAF weather

Enter ICAO airport designator
Station Type Date Time Source
KPHT METAR 2022/06/26 08:35 UTC NOAA

KPHT 260835Z AUTO 00000KT 10SM CLR 23/19 A3002 RMK A01


Station Type Date Time Source
KPHT Decoded METAR 2022/06/26 08:35 UTC NOAA

Station name not available
Jun 26, 2022 - 04:35 AM EDT / 2022.06.26 0835 UTC
Wind: Calm:0
Visibility: 10 mile(s):0
Sky conditions: clear
Temperature: 73 F (23 C)
Dew Point: 66 F (19 C)
Relative Humidity: 78%
Pressure (altimeter): 30.02 in. Hg (1016 hPa)
ob: KPHT 260835Z AUTO 00000KT 10SM CLR 23/19 A3002 RMK A01
cycle: 8

Station Type Date Time Source
KPHT TAF UTC NOAA

Error!

Example: see airport list